Terminal Aerodrome Forecast
Issued by NWS

Home | Current Version | Previous Version | Text Only | Print | Product List | Glossary On
Versions: 1 2 3 4 5 6 7 8 9 10 11 12 13 14
000
FTUS45 KABQ 282339
TAFTCC
TAF
KTCC 282339Z 2900/2924 15011KT P6SM VCTS SCT060CB BKN100
      TEMPO 2900/2903 VRB15G25KT 6SM -SHRA BKN060
     FM290300 20006KT P6SM BKN100
     FM291000 VRB06KT P6SM SCT010
     FM292000 10011KT P6SM SCT060 BKN100=

USA.gov is the U.S. government's official web portal to all federal, state and local government web resources and services.